Time,TemperatureF,DewpointF,PressureIn,WindDirection,WindDirectionDegrees,WindSpeedMPH,WindSpeedGustMPH,Humidity,HourlyPrecipIn,Conditions,Clouds,dailyrainin,SoftwareType,DateUTC
2013-03-06 00:02:00,69.0,48.0,29.99,North,5,33.0,42.0,47,0.00,,,0.00,weatherlink.com 1.10,2013-03-05 22:02:00,
2013-03-06 00:17:00,68.7,46.0,29.99,NNE,12,32.0,42.0,45,0.00,,,0.00,weatherlink.com 1.10,2013-03-05 22:17:00,
2013-03-06 00:32:00,68.7,49.0,29.99,North,5,33.0,41.0,49,0.00,,,0.00,weatherlink.com 1.10,2013-03-05 22:32:00,
2013-03-06 00:47:00,68.2,47.0,29.99,NNE,15,36.0,42.0,47,0.00,,,0.00,weatherlink.com 1.10,2013-03-05 22:47:00,
2013-03-06 01:02:00,68.1,48.0,29.99,North,360,35.0,43.0,48,0.00,,,0.00,weatherlink.com 1.10,2013-03-05 23:02:00,
2013-03-06 01:17:00,67.6,45.0,29.99,North,11,32.0,42.0,45,0.00,,,0.00,weatherlink.com 1.10,2013-03-05 23:17:00,
2013-03-06 01:32:00,67.3,46.0,30.00,North,9,35.0,42.0,47,0.00,,,0.00,weatherlink.com 1.10,2013-03-05 23:32:00,
2013-03-06 01:47:00,66.9,45.0,29.99,North,5,35.0,41.0,46,0.00,,,0.00,weatherlink.com 1.10,2013-03-05 23:47:00,
2013-03-06 02:02:00,66.8,47.0,29.99,NNE,14,38.0,41.0,49,0.00,,,0.00,weatherlink.com 1.10,2013-03-06 00:02:00,
2013-03-06 02:17:00,66.8,47.0,30.00,NNE,18,32.0,41.0,50,0.00,,,0.00,weatherlink.com 1.10,2013-03-06 00:17:00,
2013-03-06 02:32:00,66.6,47.0,30.00,North,11,34.0,41.0,49,0.00,,,0.00,weatherlink.com 1.10,2013-03-06 00:32:00,
2013-03-06 02:47:00,66.1,46.0,29.99,NNE,16,35.0,39.0,48,0.00,,,0.00,weatherlink.com 1.10,2013-03-06 00:47:00,
2013-03-06 03:02:00,66.1,48.0,30.00,North,11,30.0,39.0,53,0.00,,,0.00,weatherlink.com 1.10,2013-03-06 01:02:00,
2013-03-06 03:17:00,65.7,46.0,30.00,NNE,17,33.0,39.0,49,0.00,,,0.00,weatherlink.com 1.10,2013-03-06 01:17:00,
2013-03-06 03:32:00,65.6,47.0,30.00,NNE,33,30.0,41.0,52,0.00,,,0.00,weatherlink.com 1.10,2013-03-06 01:32:00,
2013-03-06 03:47:00,65.4,48.0,30.00,NNE,23,33.0,39.0,54,0.00,,,0.00,weatherlink.com 1.10,2013-03-06 01:47:00,
2013-03-06 04:02:00,64.9,47.0,30.00,NNE,16,29.0,41.0,53,0.00,,,0.00,weatherlink.com 1.10,2013-03-06 02:02:00,
2013-03-06 04:17:00,64.8,46.0,30.00,NNE,20,32.0,40.0,51,0.00,,,0.00,weatherlink.com 1.10,2013-03-06 02:17:00,
2013-03-06 04:32:00,64.6,45.0,30.00,NNE,21,32.0,39.0,50,0.00,,,0.00,weatherlink.com 1.10,2013-03-06 02:32:00,
2013-03-06 04:47:00,64.9,47.0,30.01,NNE,22,35.0,41.0,52,0.00,,,0.00,weatherlink.com 1.10,2013-03-06 02:47:00,
2013-03-06 05:02:00,64.6,47.0,30.02,NNE,26,32.0,43.0,54,0.00,,,0.00,weatherlink.com 1.10,2013-03-06 03:02:00,
2013-03-06 05:17:00,64.4,46.0,30.02,NNE,26,36.0,42.0,52,0.00,,,0.00,weatherlink.com 1.10,2013-03-06 03:17:00,
2013-03-06 05:32:00,64.1,45.0,30.03,NNE,17,30.0,44.0,50,0.00,,,0.00,weatherlink.com 1.10,2013-03-06 03:32:00,
2013-03-06 05:47:00,64.1,45.0,30.04,NNE,22,38.0,42.0,51,0.00,,,0.00,weatherlink.com 1.10,2013-03-06 03:47:00,
2013-03-06 06:02:00,63.9,45.0,30.04,NNE,26,41.0,43.0,50,0.00,,,0.00,weatherlink.com 1.10,2013-03-06 04:02:00,
2013-03-06 06:17:00,64.1,46.0,30.05,NNE,18,37.0,41.0,53,0.00,,,0.00,weatherlink.com 1.10,2013-03-06 04:17:00,
2013-03-06 06:33:00,64.1,46.0,30.05,NNE,15,33.0,44.0,53,0.00,,,0.00,weatherlink.com 1.10,2013-03-06 04:33:00,
2013-03-06 06:48:00,63.7,47.0,30.05,North,5,33.0,45.0,54,0.00,,,0.00,weatherlink.com 1.10,2013-03-06 04:48:00,
2013-03-06 07:03:00,63.5,45.0,30.06,NNE,24,41.0,44.0,52,0.00,,,0.00,weatherlink.com 1.10,2013-03-06 05:03:00,
2013-03-06 07:18:00,63.6,43.0,30.07,NNE,12,37.0,46.0,48,0.00,,,0.00,weatherlink.com 1.10,2013-03-06 05:18:00,
2013-03-06 07:33:00,63.8,45.0,30.08,NNE,13,38.0,45.0,51,0.00,,,0.00,weatherlink.com 1.10,2013-03-06 05:33:00,
2013-03-06 07:47:00,63.9,43.0,30.09,NNE,20,25.0,40.0,46,0.00,,,0.00,weatherlink.com 1.10,2013-03-06 05:47:00,
2013-03-06 08:03:00,64.0,43.0,30.09,NNE,28,32.0,39.0,47,0.00,,,0.00,weatherlink.com 1.10,2013-03-06 06:03:00,
2013-03-06 08:18:00,64.1,42.0,30.09,NNE,31,35.0,38.0,44,0.00,,,0.00,weatherlink.com 1.10,2013-03-06 06:18:00,
2013-03-06 08:33:00,64.2,43.0,30.10,NNE,32,29.0,39.0,46,0.00,,,0.00,weatherlink.com 1.10,2013-03-06 06:33:00,
2013-03-06 08:49:00,64.1,43.0,30.10,NNE,24,30.0,39.0,46,0.00,,,0.00,weatherlink.com 1.10,2013-03-06 06:49:00,
2013-03-06 09:03:00,64.4,44.0,30.10,NNE,26,31.0,37.0,48,0.00,,,0.00,weatherlink.com 1.10,2013-03-06 07:03:00,
2013-03-06 09:18:00,64.6,44.0,30.09,NNE,32,33.0,36.0,47,0.00,,,0.00,weatherlink.com 1.10,2013-03-06 07:18:00,
2013-03-06 09:34:00,65.0,43.0,30.10,NNE,22,30.0,38.0,45,0.00,,,0.00,weatherlink.com 1.10,2013-03-06 07:34:00,
2013-03-06 09:49:00,65.5,45.0,30.10,NE,43,30.0,35.0,47,0.00,,,0.00,weatherlink.com 1.10,2013-03-06 07:49:00,
2013-03-06 10:04:00,65.5,44.0,30.10,NNE,27,32.0,37.0,46,0.00,,,0.00,weatherlink.com 1.10,2013-03-06 08:04:00,
2013-03-06 10:19:00,65.9,41.0,30.10,NNE,26,31.0,35.0,40,0.00,,,0.00,weatherlink.com 1.10,2013-03-06 08:19:00,
2013-03-06 10:34:00,66.1,43.0,30.09,NE,36,30.0,35.0,44,0.00,,,0.00,weatherlink.com 1.10,2013-03-06 08:34:00,
2013-03-06 10:49:00,66.4,45.0,30.08,NNE,24,32.0,37.0,47,0.00,,,0.00,weatherlink.com 1.10,2013-03-06 08:49:00,
2013-03-06 11:05:00,66.7,46.0,30.08,NNE,23,32.0,35.0,48,0.00,,,0.00,weatherlink.com 1.10,2013-03-06 09:05:00,
2013-03-06 11:19:00,66.8,46.0,30.07,NE,35,28.0,35.0,47,0.00,,,0.00,weatherlink.com 1.10,2013-03-06 09:19:00,
2013-03-06 11:35:00,67.4,47.0,30.07,NNE,30,32.0,36.0,48,0.00,,,0.00,weatherlink.com 1.10,2013-03-06 09:35:00,
2013-03-06 11:50:00,68.4,47.0,30.06,NNE,19,24.0,35.0,47,0.00,,,0.00,weatherlink.com 1.10,2013-03-06 09:50:00,
2013-03-06 12:05:00,67.8,45.0,30.05,NNE,18,28.0,34.0,44,0.00,,,0.00,weatherlink.com 1.10,2013-03-06 10:05:00,
2013-03-06 12:22:00,68.3,44.0,30.05,NE,34,27.0,33.0,42,0.00,,,0.00,weatherlink.com 1.10,2013-03-06 10:22:00,
2013-03-06 12:36:00,69.0,45.0,30.04,NNE,27,31.0,33.0,43,0.00,,,0.00,weatherlink.com 1.10,2013-03-06 10:36:00,
2013-03-06 12:52:00,69.1,42.0,30.04,NNE,33,26.0,31.0,37,0.00,,,0.00,weatherlink.com 1.10,2013-03-06 10:52:00,
2013-03-06 13:06:00,69.6,47.0,30.03,NNE,28,25.0,33.0,44,0.00,,,0.00,weatherlink.com 1.10,2013-03-06 11:06:00,
2013-03-06 13:22:00,70.2,47.0,30.04,NNE,22,29.0,31.0,43,0.00,,,0.00,weatherlink.com 1.10,2013-03-06 11:22:00,
2013-03-06 13:36:00,70.5,43.0,30.04,NNE,21,26.0,30.0,37,0.00,,,0.00,weatherlink.com 1.10,2013-03-06 11:36:00,
2013-03-06 13:52:00,70.4,42.0,30.03,NNE,17,25.0,29.0,36,0.00,,,0.00,weatherlink.com 1.10,2013-03-06 11:52:00,
2013-03-06 14:06:00,70.6,42.0,30.03,North,11,22.0,28.0,35,0.00,,,0.00,weatherlink.com 1.10,2013-03-06 12:06:00,
2013-03-06 14:22:00,71.0,45.0,30.03,NNE,15,21.0,26.0,39,0.00,,,0.00,weatherlink.com 1.10,2013-03-06 12:22:00,
2013-03-06 14:36:00,71.0,45.0,30.02,NNE,18,23.0,24.0,39,0.00,,,0.00,weatherlink.com 1.10,2013-03-06 12:36:00,
2013-03-06 14:52:00,71.4,44.0,30.02,NNE,30,21.0,23.0,38,0.00,,,0.00,weatherlink.com 1.10,2013-03-06 12:52:00,
2013-03-06 15:07:00,71.8,44.0,30.02,NNE,13,20.0,23.0,37,0.00,,,0.00,weatherlink.com 1.10,2013-03-06 13:07:00,
2013-03-06 15:22:00,72.0,47.0,30.02,NNE,14,20.0,23.0,41,0.00,,,0.00,weatherlink.com 1.10,2013-03-06 13:22:00,
2013-03-06 15:37:00,72.1,48.0,30.01,North,5,16.0,24.0,43,0.00,,,0.00,weatherlink.com 1.10,2013-03-06 13:37:00,
2013-03-06 15:52:00,72.0,49.0,30.02,NNE,26,20.0,24.0,44,0.00,,,0.00,weatherlink.com 1.10,2013-03-06 13:52:00,
2013-03-06 16:07:00,72.0,45.0,30.02,North,9,20.0,25.0,38,0.00,,,0.00,weatherlink.com 1.10,2013-03-06 14:07:00,
2013-03-06 16:22:00,72.0,46.0,30.02,North,11,23.0,28.0,39,0.00,,,0.00,weatherlink.com 1.10,2013-03-06 14:22:00,
2013-03-06 16:38:00,71.9,45.0,30.02,NNE,25,28.0,30.0,38,0.00,,,0.00,weatherlink.com 1.10,2013-03-06 14:38:00,
2013-03-06 16:53:00,71.8,47.0,30.01,North,9,24.0,28.0,42,0.00,,,0.00,weatherlink.com 1.10,2013-03-06 14:53:00,
2013-03-06 17:08:00,71.6,52.0,30.01,North,5,23.0,31.0,51,0.00,,,0.00,weatherlink.com 1.10,2013-03-06 15:08:00,
2013-03-06 17:23:00,71.7,51.0,30.02,North,5,28.0,30.0,48,0.00,,,0.00,weatherlink.com 1.10,2013-03-06 15:23:00,
2013-03-06 17:38:00,71.5,51.0,30.02,North,10,25.0,29.0,49,0.00,,,0.00,weatherlink.com 1.10,2013-03-06 15:38:00,
2013-03-06 17:53:00,71.4,51.0,30.02,North,9,27.0,28.0,48,0.00,,,0.00,weatherlink.com 1.10,2013-03-06 15:53:00,
2013-03-06 18:08:00,71.4,52.0,30.01,North,5,22.0,30.0,50,0.00,,,0.00,weatherlink.com 1.10,2013-03-06 16:08:00,
2013-03-06 18:23:00,71.3,52.0,30.01,North,5,26.0,32.0,50,0.00,,,0.00,weatherlink.com 1.10,2013-03-06 16:23:00,
2013-03-06 18:38:00,71.4,49.0,30.02,NNE,21,30.0,36.0,45,0.00,,,0.00,weatherlink.com 1.10,2013-03-06 16:38:00,
2013-03-06 18:53:00,71.4,51.0,30.02,NNE,19,32.0,35.0,48,0.00,,,0.00,weatherlink.com 1.10,2013-03-06 16:53:00,
2013-03-06 19:08:00,71.6,51.0,30.03,NNE,25,29.0,35.0,48,0.00,,,0.00,weatherlink.com 1.10,2013-03-06 17:08:00,
2013-03-06 19:23:00,71.3,52.0,30.03,NNE,13,28.0,34.0,50,0.00,,,0.00,weatherlink.com 1.10,2013-03-06 17:23:00,
2013-03-06 19:38:00,71.3,52.0,30.04,NNE,17,29.0,34.0,50,0.00,,,0.00,weatherlink.com 1.10,2013-03-06 17:38:00,
2013-03-06 19:53:00,71.2,52.0,30.04,NNE,28,24.0,32.0,51,0.00,,,0.00,weatherlink.com 1.10,2013-03-06 17:53:00,
2013-03-06 20:23:00,71.1,53.0,30.05,NNE,17,32.0,34.0,53,0.00,,,0.00,weatherlink.com 1.10,2013-03-06 18:23:00,
2013-03-06 20:38:00,71.1,52.0,30.05,NNE,19,31.0,35.0,51,0.00,,,0.00,weatherlink.com 1.10,2013-03-06 18:38:00,
2013-03-06 20:53:00,70.8,53.0,30.05,NE,36,30.0,35.0,53,0.00,,,0.00,weatherlink.com 1.10,2013-03-06 18:53:00,
2013-03-06 21:08:00,70.7,54.0,30.05,NNE,32,32.0,36.0,55,0.00,,,0.00,weatherlink.com 1.10,2013-03-06 19:08:00,
2013-03-06 21:23:00,70.9,53.0,30.05,NNE,18,30.0,36.0,53,0.00,,,0.00,weatherlink.com 1.10,2013-03-06 19:23:00,
2013-03-06 21:38:00,70.7,52.0,30.05,NNE,25,31.0,33.0,51,0.00,,,0.00,weatherlink.com 1.10,2013-03-06 19:38:00,
2013-03-06 21:53:00,70.5,52.0,30.05,NNE,30,31.0,34.0,52,0.00,,,0.00,weatherlink.com 1.10,2013-03-06 19:53:00,
2013-03-06 22:08:00,70.4,52.0,30.05,NNE,22,25.0,33.0,53,0.00,,,0.00,weatherlink.com 1.10,2013-03-06 20:08:00,
2013-03-06 22:54:00,69.8,51.0,30.06,NNE,17,24.0,34.0,52,0.00,,,0.00,weatherlink.com 1.10,2013-03-06 20:54:00,
2013-03-06 23:08:00,69.6,50.0,30.05,NNE,19,27.0,34.0,50,0.00,,,0.00,weatherlink.com 1.10,2013-03-06 21:08:00,
2013-03-06 23:54:00,69.7,45.0,30.05,NNE,15,25.0,29.0,41,0.00,,,0.00,weatherlink.com 1.10,2013-03-06 21:54:00,